CYRJCYBC

Guest
Details From CYRJ - ROBERVAL
To CYBC - BAIE COMEAU
Flight Number -
Tags generated
Created
Modified
Stats Distance 189 nm / 350 km
Max Altitude 17,800 ft / 5,425 m
Waypoints 4
Social Downloads 0
Likes 0
Share VATSIM

Download

Looking for another format? Having issues loading an existing format? Contact us
Advertisement - Login to hide

Notes

Basic altitude profile: - Ascent Rate: 2500ft/min - Ascent Speed: 250kts - Cruise Altitude: 35000ft - Cruise Speed: 420kts - Descent Rate: 1500ft/min - Descent Speed: 250kts Options: - Use NATs: yes - Use PACOTS: yes - Use low airways: yes - Use high airways: yes

Route

CYRJ VBS V382 FE CYBC

ID Type Via Altitude Latitude Longitude Leg Dist Tot Dist Heading (true) Name
O CYRJ APT - 0 ft / 0 m 48.52000˚ -72.26556˚ - 0 nm - ROBERVAL
VBS VOR - 17,800 ft / 5,425 m 48.01722˚ -71.26667˚ 50 nm 50 nm 127° / 127° SAGUENAY VOR-DME
FE NDB V382 (AWY-LO) 9,500 ft / 2,896 m 48.73000˚ -69.16250˚ 94 nm 144 nm 62° / 64° FORESTVILLE NDB
O CYBC APT - 0 ft / 0 m 49.13227˚ -68.20721˚ 44 nm 189 nm 57° / 58° BAIE COMEAU

Altitude Profile

Advertisement - Login to hide

Weather


0- 5 10 15 20 25 30 35+ Temperature / ° C

Clouds and Precipitation
Forecast for 2018-05-28 00:00 UTC. Updated 5 hours ago

Ground ~20,000 ft ~40,000 ft Winds

CYRJ

Details ICAO CYRJ (YRJ)
Name ROBERVAL
Region Canada
Timezone America/Montreal (UTC-4.0)
Stats Elevation 586 ft / 179 m (AMSL)
Location 48.520001° -72.265556°
Runways 1
Magnetic Variation 16.036° W

METAR

Not found

TAF

TAF CYRJ 271940Z 2720/2802 10008KT P6SM BKN060 TEMPO 2720/2802 P6SM -SHRA BKN030 BECMG 2720/2722 18010G20KT RMK NXT FCST WILL BE ISSUED AT 281145Z

Decode

Departure Runways

ID Width Length Bearing (true) Bearing (mag) Surface Threshold Offset Overrun Length
16 150 ft / 46 m 5,096 ft / 1,553 m 142.69° 158.73° Asphalt 0 ft / 0 m 0 ft / 0 m
34 150 ft / 46 m 5,096 ft / 1,553 m 322.70° 338.74° Asphalt 0 ft / 0 m 0 ft / 0 m

CYBC

Details ICAO CYBC (YBC)
Name BAIE COMEAU
Region Canada
Timezone America/Montreal (UTC-4.0)
Stats Elevation 71 ft / 22 m (AMSL)
Location 49.132270° -68.207207°
Runways 1
Magnetic Variation 17.786° W

METAR

Not found

TAF

TAF CYBC 280142Z 2802/2814 08007KT P6SM SCT200 FM280500 15010KT P6SM BKN120 FM280800 13010KT P6SM OVC070 TEMPO 2808/2812 P6SM -RA FM281200 18015G25KT 6SM -RA BR OVC030 TEMPO 2812/2814 3SM -RA BR OVC015 RMK FCST BASED ON AUTO OBS. NXT FCST BY 280800Z

Decode

Destination Runways

ID Width Length Bearing (true) Bearing (mag) Surface Threshold Offset Overrun Length
10 150 ft / 46 m 5,984 ft / 1,824 m 80.50° 98.29° Asphalt 0 ft / 0 m 0 ft / 0 m
28 150 ft / 46 m 5,984 ft / 1,824 m 260.52° 278.31° Asphalt 0 ft / 0 m 0 ft / 0 m

Approach Navaids

Runway Type Ident Frequency Range Bearing (true) Bearing (mag) Slope Elevation
10 Localiser IBC 110.30 MHz 18 nm / 33 km 79.38° 97.16° - 66 ft / 20 m (AMSL)
10 Glidescope IBC 110.30 MHz 18 nm / 33 km 100.00° 117.79° 2.50° 69 ft / 21 m (AMSL)